sensor_id;sensor_type;location;lat;lon;timestamp;P1;durP1;ratioP1;P2;durP2;ratioP2
4909;SDS011;2470;49.868;8.660;2023-02-28T00:00:31;4.20;;;2.33;;
4909;SDS011;2470;49.868;8.660;2023-02-28T00:02:58;2.13;;;1.30;;
4909;SDS011;2470;49.868;8.660;2023-02-28T00:05:24;1.50;;;1.40;;
4909;SDS011;2470;49.868;8.660;2023-02-28T00:07:51;1.37;;;1.23;;
4909;SDS011;2470;49.868;8.660;2023-02-28T00:10:24;3.13;;;1.90;;
4909;SDS011;2470;49.868;8.660;2023-02-28T00:12:52;1.73;;;1.63;;
4909;SDS011;2470;49.868;8.660;2023-02-28T00:15:19;1.33;;;1.23;;
4909;SDS011;2470;49.868;8.660;2023-02-28T00:17:46;1.77;;;1.47;;
4909;SDS011;2470;49.868;8.660;2023-02-28T00:20:12;1.00;;;1.00;;
4909;SDS011;2470;49.868;8.660;2023-02-28T00:22:39;2.53;;;1.87;;
4909;SDS011;2470;49.868;8.660;2023-02-28T00:25:06;1.87;;;1.77;;
4909;SDS011;2470;49.868;8.660;2023-02-28T00:27:32;3.10;;;2.43;;
4909;SDS011;2470;49.868;8.660;2023-02-28T00:29:59;1.40;;;1.30;;
4909;SDS011;2470;49.868;8.660;2023-02-28T00:32:24;5.43;;;2.20;;
4909;SDS011;2470;49.868;8.660;2023-02-28T00:34:50;2.27;;;2.07;;
4909;SDS011;2470;49.868;8.660;2023-02-28T00:37:15;1.13;;;1.10;;
4909;SDS011;2470;49.868;8.660;2023-02-28T00:39:41;2.13;;;1.80;;
4909;SDS011;2470;49.868;8.660;2023-02-28T00:42:07;1.40;;;1.30;;
4909;SDS011;2470;49.868;8.660;2023-02-28T00:44:33;3.00;;;1.40;;
4909;SDS011;2470;49.868;8.660;2023-02-28T00:46:59;1.40;;;1.30;;
4909;SDS011;2470;49.868;8.660;2023-02-28T00:49:27;2.70;;;1.67;;
4909;SDS011;2470;49.868;8.660;2023-02-28T00:51:54;4.73;;;1.90;;
4909;SDS011;2470;49.868;8.660;2023-02-28T00:54:20;2.30;;;1.73;;
4909;SDS011;2470;49.868;8.660;2023-02-28T00:56:46;2.30;;;1.47;;
4909;SDS011;2470;49.868;8.660;2023-02-28T00:59:12;1.73;;;1.63;;
4909;SDS011;2470;49.868;8.660;2023-02-28T01:01:38;6.53;;;3.90;;
4909;SDS011;2470;49.868;8.660;2023-02-28T01:04:04;2.23;;;2.03;;
4909;SDS011;2470;49.868;8.660;2023-02-28T01:06:30;1.50;;;1.40;;
4909;SDS011;2470;49.868;8.660;2023-02-28T01:08:56;3.30;;;2.60;;
4909;SDS011;2470;49.868;8.660;2023-02-28T01:11:22;1.33;;;1.23;;
4909;SDS011;2470;49.868;8.660;2023-02-28T01:13:48;1.20;;;1.10;;
4909;SDS011;2470;49.868;8.660;2023-02-28T01:16:14;1.63;;;1.53;;
4909;SDS011;2470;49.868;8.660;2023-02-28T01:18:40;3.33;;;1.70;;
4909;SDS011;2470;49.868;8.660;2023-02-28T01:21:06;7.50;;;1.80;;
4909;SDS011;2470;49.868;8.660;2023-02-28T01:23:33;3.00;;;1.70;;
4909;SDS011;2470;49.868;8.660;2023-02-28T01:26:06;2.73;;;1.70;;
4909;SDS011;2470;49.868;8.660;2023-02-28T01:28:32;1.83;;;1.70;;
4909;SDS011;2470;49.868;8.660;2023-02-28T01:30:58;3.63;;;2.10;;
4909;SDS011;2470;49.868;8.660;2023-02-28T01:33:24;3.73;;;1.50;;
4909;SDS011;2470;49.868;8.660;2023-02-28T01:35:56;1.30;;;1.30;;
4909;SDS011;2470;49.868;8.660;2023-02-28T01:38:26;2.27;;;2.07;;
4909;SDS011;2470;49.868;8.660;2023-02-28T01:40:52;1.70;;;1.60;;
4909;SDS011;2470;49.868;8.660;2023-02-28T01:43:25;1.10;;;1.10;;
4909;SDS011;2470;49.868;8.660;2023-02-28T01:45:56;1.30;;;1.30;;
4909;SDS011;2470;49.868;8.660;2023-02-28T01:48:24;1.93;;;1.63;;
4909;SDS011;2470;49.868;8.660;2023-02-28T01:50:52;1.83;;;1.60;;
4909;SDS011;2470;49.868;8.660;2023-02-28T01:53:19;1.40;;;1.30;;
4909;SDS011;2470;49.868;8.660;2023-02-28T01:55:51;1.27;;;1.17;;
4909;SDS011;2470;49.868;8.660;2023-02-28T01:58:18;1.60;;;1.50;;
4909;SDS011;2470;49.868;8.660;2023-02-28T02:00:44;1.37;;;1.30;;
4909;SDS011;2470;49.868;8.660;2023-02-28T02:03:12;3.30;;;1.77;;
4909;SDS011;2470;49.868;8.660;2023-02-28T02:05:40;1.40;;;1.30;;
4909;SDS011;2470;49.868;8.660;2023-02-28T02:08:08;3.37;;;1.60;;
4909;SDS011;2470;49.868;8.660;2023-02-28T02:10:41;1.63;;;1.53;;
4909;SDS011;2470;49.868;8.660;2023-02-28T02:13:14;1.40;;;1.30;;
4909;SDS011;2470;49.868;8.660;2023-02-28T02:18:38;1.53;;;1.43;;
4909;SDS011;2470;49.868;8.660;2023-02-28T02:24:29;1.80;;;1.70;;
4909;SDS011;2470;49.868;8.660;2023-02-28T02:32:47;4.10;;;2.20;;
4909;SDS011;2470;49.868;8.660;2023-02-28T02:49:03;1.73;;;1.63;;
4909;SDS011;2470;49.868;8.660;2023-02-28T02:51:31;2.57;;;2.37;;
4909;SDS011;2470;49.868;8.660;2023-02-28T02:54:20;3.20;;;2.47;;
4909;SDS011;2470;49.868;8.660;2023-02-28T02:56:46;1.73;;;1.63;;
4909;SDS011;2470;49.868;8.660;2023-02-28T02:59:15;2.30;;;1.80;;
4909;SDS011;2470;49.868;8.660;2023-02-28T03:01:46;9.33;;;2.63;;
4909;SDS011;2470;49.868;8.660;2023-02-28T03:04:16;2.07;;;1.87;;
4909;SDS011;2470;49.868;8.660;2023-02-28T03:06:45;1.27;;;1.27;;
4909;SDS011;2470;49.868;8.660;2023-02-28T03:09:11;2.40;;;2.10;;
4909;SDS011;2470;49.868;8.660;2023-02-28T03:11:37;2.00;;;1.80;;
4909;SDS011;2470;49.868;8.660;2023-02-28T03:27:21;3.17;;;1.97;;
4909;SDS011;2470;49.868;8.660;2023-02-28T03:29:52;3.27;;;2.27;;
4909;SDS011;2470;49.868;8.660;2023-02-28T03:32:28;2.10;;;1.90;;
4909;SDS011;2470;49.868;8.660;2023-02-28T03:35:02;3.83;;;1.93;;
4909;SDS011;2470;49.868;8.660;2023-02-28T03:37:35;2.80;;;1.80;;
4909;SDS011;2470;49.868;8.660;2023-02-28T03:40:05;4.27;;;3.23;;
4909;SDS011;2470;49.868;8.660;2023-02-28T03:42:39;2.83;;;2.00;;
4909;SDS011;2470;49.868;8.660;2023-02-28T03:45:11;2.67;;;2.43;;
4909;SDS011;2470;49.868;8.660;2023-02-28T03:47:44;2.70;;;2.37;;
4909;SDS011;2470;49.868;8.660;2023-02-28T03:50:22;1.93;;;1.83;;
4909;SDS011;2470;49.868;8.660;2023-02-28T03:53:01;7.10;;;2.10;;
4909;SDS011;2470;49.868;8.660;2023-02-28T03:55:33;4.00;;;2.23;;
4909;SDS011;2470;49.868;8.660;2023-02-28T04:00:54;2.17;;;1.70;;
4909;SDS011;2470;49.868;8.660;2023-02-28T04:03:25;2.17;;;1.57;;
4909;SDS011;2470;49.868;8.660;2023-02-28T04:05:51;2.37;;;1.93;;
4909;SDS011;2470;49.868;8.660;2023-02-28T04:08:19;2.40;;;2.17;;
4909;SDS011;2470;49.868;8.660;2023-02-28T04:10:46;2.50;;;1.67;;
4909;SDS011;2470;49.868;8.660;2023-02-28T04:13:18;3.13;;;2.33;;
4909;SDS011;2470;49.868;8.660;2023-02-28T04:15:43;2.10;;;1.90;;
4909;SDS011;2470;49.868;8.660;2023-02-28T04:18:09;2.67;;;2.30;;
4909;SDS011;2470;49.868;8.660;2023-02-28T04:20:34;2.37;;;2.27;;
4909;SDS011;2470;49.868;8.660;2023-02-28T04:23:00;2.10;;;1.83;;
4909;SDS011;2470;49.868;8.660;2023-02-28T04:25:25;3.70;;;3.40;;
4909;SDS011;2470;49.868;8.660;2023-02-28T04:27:51;4.77;;;2.90;;
4909;SDS011;2470;49.868;8.660;2023-02-28T04:30:16;7.43;;;3.83;;
4909;SDS011;2470;49.868;8.660;2023-02-28T04:32:42;4.27;;;2.10;;
4909;SDS011;2470;49.868;8.660;2023-02-28T04:35:07;2.80;;;2.30;;
4909;SDS011;2470;49.868;8.660;2023-02-28T04:37:33;2.77;;;2.50;;
4909;SDS011;2470;49.868;8.660;2023-02-28T04:39:59;2.13;;;1.87;;
4909;SDS011;2470;49.868;8.660;2023-02-28T04:42:25;3.00;;;2.10;;
4909;SDS011;2470;49.868;8.660;2023-02-28T04:44:51;2.57;;;2.30;;
4909;SDS011;2470;49.868;8.660;2023-02-28T04:47:17;4.70;;;3.27;;
4909;SDS011;2470;49.868;8.660;2023-02-28T04:49:42;3.03;;;2.73;;
4909;SDS011;2470;49.868;8.660;2023-02-28T04:52:08;2.60;;;2.03;;
4909;SDS011;2470;49.868;8.660;2023-02-28T04:54:35;3.63;;;2.03;;
4909;SDS011;2470;49.868;8.660;2023-02-28T04:57:00;2.73;;;2.17;;
4909;SDS011;2470;49.868;8.660;2023-02-28T04:59:26;3.57;;;2.40;;
4909;SDS011;2470;49.868;8.660;2023-02-28T05:01:52;2.63;;;2.33;;
4909;SDS011;2470;49.868;8.660;2023-02-28T05:04:17;2.43;;;2.10;;
4909;SDS011;2470;49.868;8.660;2023-02-28T05:06:43;3.53;;;3.23;;
4909;SDS011;2470;49.868;8.660;2023-02-28T05:09:09;2.40;;;1.53;;
4909;SDS011;2470;49.868;8.660;2023-02-28T05:11:36;2.67;;;2.37;;
4909;SDS011;2470;49.868;8.660;2023-02-28T05:14:04;1.90;;;1.80;;
4909;SDS011;2470;49.868;8.660;2023-02-28T05:16:32;2.53;;;1.90;;
4909;SDS011;2470;49.868;8.660;2023-02-28T05:18:58;2.70;;;2.27;;
4909;SDS011;2470;49.868;8.660;2023-02-28T05:21:33;2.03;;;1.73;;
4909;SDS011;2470;49.868;8.660;2023-02-28T05:24:07;1.40;;;1.30;;
4909;SDS011;2470;49.868;8.660;2023-02-28T05:26:36;2.10;;;1.87;;
4909;SDS011;2470;49.868;8.660;2023-02-28T05:29:06;3.90;;;2.03;;
4909;SDS011;2470;49.868;8.660;2023-02-28T05:31:31;3.87;;;2.10;;
4909;SDS011;2470;49.868;8.660;2023-02-28T05:33:57;2.23;;;1.70;;
4909;SDS011;2470;49.868;8.660;2023-02-28T05:36:23;1.80;;;1.60;;
4909;SDS011;2470;49.868;8.660;2023-02-28T05:38:49;2.30;;;2.20;;
4909;SDS011;2470;49.868;8.660;2023-02-28T05:41:15;1.67;;;1.57;;
4909;SDS011;2470;49.868;8.660;2023-02-28T05:43:42;1.80;;;1.70;;
4909;SDS011;2470;49.868;8.660;2023-02-28T05:46:09;3.00;;;2.70;;
4909;SDS011;2470;49.868;8.660;2023-02-28T05:48:36;1.10;;;1.10;;
4909;SDS011;2470;49.868;8.660;2023-02-28T05:51:03;2.20;;;2.00;;
4909;SDS011;2470;49.868;8.660;2023-02-28T05:53:29;1.93;;;1.73;;
4909;SDS011;2470;49.868;8.660;2023-02-28T05:55:55;3.30;;;2.23;;
4909;SDS011;2470;49.868;8.660;2023-02-28T05:58:22;3.87;;;3.47;;
4909;SDS011;2470;49.868;8.660;2023-02-28T06:00:48;7.40;;;2.77;;
4909;SDS011;2470;49.868;8.660;2023-02-28T06:03:14;7.90;;;3.67;;
4909;SDS011;2470;49.868;8.660;2023-02-28T06:05:39;5.07;;;2.70;;
4909;SDS011;2470;49.868;8.660;2023-02-28T06:08:05;8.03;;;2.87;;
4909;SDS011;2470;49.868;8.660;2023-02-28T06:10:32;5.37;;;2.33;;
4909;SDS011;2470;49.868;8.660;2023-02-28T06:13:02;4.13;;;3.00;;
4909;SDS011;2470;49.868;8.660;2023-02-28T06:15:28;2.27;;;2.10;;
4909;SDS011;2470;49.868;8.660;2023-02-28T06:17:54;3.27;;;2.53;;
4909;SDS011;2470;49.868;8.660;2023-02-28T06:20:24;3.03;;;2.17;;
4909;SDS011;2470;49.868;8.660;2023-02-28T06:22:54;3.97;;;3.20;;
4909;SDS011;2470;49.868;8.660;2023-02-28T06:25:23;4.50;;;2.57;;
4909;SDS011;2470;49.868;8.660;2023-02-28T06:27:50;2.07;;;1.93;;
4909;SDS011;2470;49.868;8.660;2023-02-28T06:30:15;3.83;;;3.37;;
4909;SDS011;2470;49.868;8.660;2023-02-28T06:32:41;1.90;;;1.80;;
4909;SDS011;2470;49.868;8.660;2023-02-28T06:35:07;2.47;;;2.27;;
4909;SDS011;2470;49.868;8.660;2023-02-28T06:37:32;6.30;;;4.13;;
4909;SDS011;2470;49.868;8.660;2023-02-28T06:39:58;5.50;;;3.80;;
4909;SDS011;2470;49.868;8.660;2023-02-28T06:42:24;3.53;;;3.23;;
4909;SDS011;2470;49.868;8.660;2023-02-28T06:44:53;2.43;;;2.27;;
4909;SDS011;2470;49.868;8.660;2023-02-28T06:47:22;10.50;;;4.73;;
4909;SDS011;2470;49.868;8.660;2023-02-28T06:49:48;6.07;;;3.23;;
4909;SDS011;2470;49.868;8.660;2023-02-28T06:52:14;8.17;;;5.57;;
4909;SDS011;2470;49.868;8.660;2023-02-28T06:54:40;10.10;;;4.53;;
4909;SDS011;2470;49.868;8.660;2023-02-28T06:57:06;8.80;;;6.07;;
4909;SDS011;2470;49.868;8.660;2023-02-28T06:59:31;9.97;;;6.27;;
4909;SDS011;2470;49.868;8.660;2023-02-28T07:01:57;6.33;;;3.57;;
4909;SDS011;2470;49.868;8.660;2023-02-28T07:04:23;3.87;;;2.33;;
4909;SDS011;2470;49.868;8.660;2023-02-28T07:06:48;14.73;;;6.07;;
4909;SDS011;2470;49.868;8.660;2023-02-28T07:09:14;7.97;;;4.77;;
4909;SDS011;2470;49.868;8.660;2023-02-28T07:11:40;6.87;;;4.03;;
4909;SDS011;2470;49.868;8.660;2023-02-28T07:14:07;7.87;;;5.47;;
4909;SDS011;2470;49.868;8.660;2023-02-28T07:16:32;10.33;;;3.97;;
4909;SDS011;2470;49.868;8.660;2023-02-28T07:18:58;6.07;;;3.70;;
4909;SDS011;2470;49.868;8.660;2023-02-28T07:21:23;3.40;;;3.10;;
4909;SDS011;2470;49.868;8.660;2023-02-28T07:23:49;4.37;;;2.90;;
4909;SDS011;2470;49.868;8.660;2023-02-28T07:26:16;2.70;;;2.50;;
4909;SDS011;2470;49.868;8.660;2023-02-28T07:28:44;2.90;;;2.57;;
4909;SDS011;2470;49.868;8.660;2023-02-28T07:31:11;9.07;;;4.30;;
4909;SDS011;2470;49.868;8.660;2023-02-28T07:33:38;2.90;;;2.60;;
4909;SDS011;2470;49.868;8.660;2023-02-28T07:36:05;4.63;;;2.57;;
4909;SDS011;2470;49.868;8.660;2023-02-28T07:38:34;3.40;;;2.70;;
4909;SDS011;2470;49.868;8.660;2023-02-28T07:41:01;5.43;;;3.53;;
4909;SDS011;2470;49.868;8.660;2023-02-28T07:43:31;6.63;;;3.10;;
4909;SDS011;2470;49.868;8.660;2023-02-28T07:46:01;2.17;;;2.07;;
4909;SDS011;2470;49.868;8.660;2023-02-28T07:48:32;2.13;;;2.03;;
4909;SDS011;2470;49.868;8.660;2023-02-28T07:50:58;2.60;;;2.40;;
4909;SDS011;2470;49.868;8.660;2023-02-28T07:53:24;2.10;;;1.90;;
4909;SDS011;2470;49.868;8.660;2023-02-28T07:55:50;1.37;;;1.27;;
4909;SDS011;2470;49.868;8.660;2023-02-28T07:58:16;1.93;;;1.67;;
4909;SDS011;2470;49.868;8.660;2023-02-28T08:00:41;2.40;;;1.77;;
4909;SDS011;2470;49.868;8.660;2023-02-28T08:03:08;3.00;;;1.97;;
4909;SDS011;2470;49.868;8.660;2023-02-28T08:05:38;6.60;;;2.50;;
4909;SDS011;2470;49.868;8.660;2023-02-28T08:08:05;5.03;;;2.50;;
4909;SDS011;2470;49.868;8.660;2023-02-28T08:10:31;2.37;;;1.90;;
4909;SDS011;2470;49.868;8.660;2023-02-28T08:12:57;6.83;;;3.17;;
4909;SDS011;2470;49.868;8.660;2023-02-28T08:15:22;2.20;;;1.77;;
4909;SDS011;2470;49.868;8.660;2023-02-28T08:17:47;5.63;;;2.93;;
4909;SDS011;2470;49.868;8.660;2023-02-28T08:20:13;3.03;;;2.30;;
4909;SDS011;2470;49.868;8.660;2023-02-28T08:22:38;2.47;;;2.27;;
4909;SDS011;2470;49.868;8.660;2023-02-28T08:25:04;1.70;;;1.57;;
4909;SDS011;2470;49.868;8.660;2023-02-28T08:27:32;5.47;;;2.50;;
4909;SDS011;2470;49.868;8.660;2023-02-28T08:29:58;2.67;;;1.80;;
4909;SDS011;2470;49.868;8.660;2023-02-28T08:32:23;2.90;;;1.90;;
4909;SDS011;2470;49.868;8.660;2023-02-28T08:34:49;1.50;;;1.37;;
4909;SDS011;2470;49.868;8.660;2023-02-28T08:37:14;2.87;;;2.10;;
4909;SDS011;2470;49.868;8.660;2023-02-28T08:39:40;4.80;;;3.33;;
4909;SDS011;2470;49.868;8.660;2023-02-28T08:42:05;6.40;;;2.50;;
4909;SDS011;2470;49.868;8.660;2023-02-28T08:44:31;2.40;;;2.10;;
4909;SDS011;2470;49.868;8.660;2023-02-28T08:46:56;2.53;;;1.70;;
4909;SDS011;2470;49.868;8.660;2023-02-28T08:49:22;4.90;;;2.40;;
4909;SDS011;2470;49.868;8.660;2023-02-28T08:51:47;3.43;;;2.47;;
4909;SDS011;2470;49.868;8.660;2023-02-28T08:54:13;3.40;;;2.70;;
4909;SDS011;2470;49.868;8.660;2023-02-28T08:56:41;5.90;;;2.00;;
4909;SDS011;2470;49.868;8.660;2023-02-28T08:59:08;3.00;;;1.80;;
4909;SDS011;2470;49.868;8.660;2023-02-28T09:01:34;3.47;;;2.67;;
4909;SDS011;2470;49.868;8.660;2023-02-28T09:04:01;2.60;;;1.93;;
4909;SDS011;2470;49.868;8.660;2023-02-28T09:06:27;1.80;;;1.70;;
4909;SDS011;2470;49.868;8.660;2023-02-28T09:08:55;5.87;;;2.87;;
4909;SDS011;2470;49.868;8.660;2023-02-28T09:11:23;5.60;;;4.30;;
4909;SDS011;2470;49.868;8.660;2023-02-28T09:13:49;3.63;;;2.50;;
4909;SDS011;2470;49.868;8.660;2023-02-28T09:16:15;7.17;;;3.97;;
4909;SDS011;2470;49.868;8.660;2023-02-28T09:18:42;11.47;;;4.57;;
4909;SDS011;2470;49.868;8.660;2023-02-28T09:21:08;4.10;;;3.00;;
4909;SDS011;2470;49.868;8.660;2023-02-28T09:23:38;2.80;;;2.10;;
4909;SDS011;2470;49.868;8.660;2023-02-28T09:26:04;2.50;;;2.30;;
4909;SDS011;2470;49.868;8.660;2023-02-28T09:28:30;4.30;;;2.87;;
4909;SDS011;2470;49.868;8.660;2023-02-28T09:30:55;5.30;;;2.83;;
4909;SDS011;2470;49.868;8.660;2023-02-28T09:33:23;5.60;;;3.17;;
4909;SDS011;2470;49.868;8.660;2023-02-28T09:35:49;18.23;;;5.03;;
4909;SDS011;2470;49.868;8.660;2023-02-28T09:38:16;9.20;;;4.10;;
4909;SDS011;2470;49.868;8.660;2023-02-28T09:41:01;3.20;;;2.10;;
4909;SDS011;2470;49.868;8.660;2023-02-28T09:43:30;4.03;;;2.87;;
4909;SDS011;2470;49.868;8.660;2023-02-28T09:46:05;18.73;;;4.40;;
4909;SDS011;2470;49.868;8.660;2023-02-28T09:48:53;40.07;;;4.00;;
4909;SDS011;2470;49.868;8.660;2023-02-28T09:54:00;2.60;;;2.40;;
4909;SDS011;2470;49.868;8.660;2023-02-28T10:05:05;4.23;;;3.70;;
4909;SDS011;2470;49.868;8.660;2023-02-28T10:07:56;3.03;;;2.70;;
4909;SDS011;2470;49.868;8.660;2023-02-28T10:16:13;6.90;;;3.63;;
4909;SDS011;2470;49.868;8.660;2023-02-28T10:18:56;9.33;;;3.67;;
4909;SDS011;2470;49.868;8.660;2023-02-28T10:21:29;5.30;;;2.73;;
4909;SDS011;2470;49.868;8.660;2023-02-28T10:24:05;4.87;;;3.00;;
4909;SDS011;2470;49.868;8.660;2023-02-28T10:26:43;8.50;;;3.73;;
4909;SDS011;2470;49.868;8.660;2023-02-28T10:29:12;4.33;;;2.80;;
4909;SDS011;2470;49.868;8.660;2023-02-28T10:31:37;6.60;;;4.10;;
4909;SDS011;2470;49.868;8.660;2023-02-28T10:34:04;5.77;;;2.87;;
4909;SDS011;2470;49.868;8.660;2023-02-28T10:36:31;6.77;;;3.20;;
4909;SDS011;2470;49.868;8.660;2023-02-28T10:38:57;8.13;;;4.03;;
4909;SDS011;2470;49.868;8.660;2023-02-28T10:41:31;6.00;;;3.97;;
4909;SDS011;2470;49.868;8.660;2023-02-28T10:44:14;7.00;;;3.73;;
4909;SDS011;2470;49.868;8.660;2023-02-28T10:46:46;14.43;;;3.97;;
4909;SDS011;2470;49.868;8.660;2023-02-28T10:51:49;6.80;;;3.37;;
4909;SDS011;2470;49.868;8.660;2023-02-28T10:54:18;4.50;;;2.90;;
4909;SDS011;2470;49.868;8.660;2023-02-28T10:59:49;5.20;;;3.90;;
4909;SDS011;2470;49.868;8.660;2023-02-28T11:02:29;4.50;;;2.87;;
4909;SDS011;2470;49.868;8.660;2023-02-28T11:04:56;4.00;;;2.70;;
4909;SDS011;2470;49.868;8.660;2023-02-28T11:07:22;5.23;;;2.63;;
4909;SDS011;2470;49.868;8.660;2023-02-28T11:09:51;7.10;;;3.50;;
4909;SDS011;2470;49.868;8.660;2023-02-28T11:15:27;3.50;;;2.97;;
4909;SDS011;2470;49.868;8.660;2023-02-28T11:17:54;5.23;;;3.20;;
4909;SDS011;2470;49.868;8.660;2023-02-28T11:20:50;4.37;;;2.63;;
4909;SDS011;2470;49.868;8.660;2023-02-28T11:23:17;3.50;;;2.80;;
4909;SDS011;2470;49.868;8.660;2023-02-28T11:25:48;7.10;;;4.00;;
4909;SDS011;2470;49.868;8.660;2023-02-28T11:28:26;7.67;;;4.20;;
4909;SDS011;2470;49.868;8.660;2023-02-28T11:36:27;12.23;;;4.07;;
4909;SDS011;2470;49.868;8.660;2023-02-28T11:38:57;4.40;;;3.27;;
4909;SDS011;2470;49.868;8.660;2023-02-28T11:44:53;6.33;;;3.67;;
4909;SDS011;2470;49.868;8.660;2023-02-28T12:01:41;5.20;;;3.70;;
4909;SDS011;2470;49.868;8.660;2023-02-28T12:07:25;2.77;;;2.53;;
4909;SDS011;2470;49.868;8.660;2023-02-28T12:15:43;9.13;;;4.87;;
4909;SDS011;2470;49.868;8.660;2023-02-28T12:21:03;5.67;;;3.10;;
4909;SDS011;2470;49.868;8.660;2023-02-28T12:29:17;8.93;;;5.20;;
4909;SDS011;2470;49.868;8.660;2023-02-28T12:31:49;6.57;;;4.00;;
4909;SDS011;2470;49.868;8.660;2023-02-28T12:34:19;7.20;;;3.60;;
4909;SDS011;2470;49.868;8.660;2023-02-28T12:36:48;4.90;;;3.50;;
4909;SDS011;2470;49.868;8.660;2023-02-28T12:39:19;3.88;;;3.05;;
4909;SDS011;2470;49.868;8.660;2023-02-28T12:41:51;5.32;;;4.03;;
4909;SDS011;2470;49.868;8.660;2023-02-28T12:44:32;7.47;;;4.18;;
4909;SDS011;2470;49.868;8.660;2023-02-28T12:47:05;5.00;;;3.33;;
4909;SDS011;2470;49.868;8.660;2023-02-28T12:49:39;11.02;;;5.97;;
4909;SDS011;2470;49.868;8.660;2023-02-28T12:52:25;6.85;;;3.97;;
4909;SDS011;2470;49.868;8.660;2023-02-28T12:55:12;9.88;;;5.03;;
4909;SDS011;2470;49.868;8.660;2023-02-28T12:57:48;5.35;;;3.50;;
4909;SDS011;2470;49.868;8.660;2023-02-28T13:00:20;4.57;;;3.75;;
4909;SDS011;2470;49.868;8.660;2023-02-28T13:05:58;4.80;;;3.50;;
4909;SDS011;2470;49.868;8.660;2023-02-28T13:09:04;4.13;;;3.33;;
4909;SDS011;2470;49.868;8.660;2023-02-28T13:11:40;6.80;;;2.97;;
4909;SDS011;2470;49.868;8.660;2023-02-28T13:14:59;4.30;;;3.63;;
4909;SDS011;2470;49.868;8.660;2023-02-28T13:17:02;4.43;;;3.40;;
4909;SDS011;2470;49.868;8.660;2023-02-28T13:19:32;5.93;;;4.32;;
4909;SDS011;2470;49.868;8.660;2023-02-28T13:22:00;6.05;;;3.30;;
4909;SDS011;2470;49.868;8.660;2023-02-28T13:27:10;9.02;;;6.32;;
4909;SDS011;2470;49.868;8.660;2023-02-28T13:29:49;8.90;;;4.22;;
4909;SDS011;2470;49.868;8.660;2023-02-28T13:39:55;9.63;;;5.05;;
4909;SDS011;2470;49.868;8.660;2023-02-28T13:55:28;5.35;;;3.55;;
4909;SDS011;2470;49.868;8.660;2023-02-28T14:07:22;5.15;;;3.22;;
4909;SDS011;2470;49.868;8.660;2023-02-28T14:09:54;3.30;;;2.28;;
4909;SDS011;2470;49.868;8.660;2023-02-28T14:18:17;3.60;;;2.78;;
4909;SDS011;2470;49.868;8.660;2023-02-28T14:20:53;4.25;;;2.80;;
4909;SDS011;2470;49.868;8.660;2023-02-28T14:23:26;4.72;;;3.08;;
4909;SDS011;2470;49.868;8.660;2023-02-28T14:31:54;3.35;;;3.00;;
4909;SDS011;2470;49.868;8.660;2023-02-28T14:37:19;3.30;;;2.33;;
4909;SDS011;2470;49.868;8.660;2023-02-28T14:39:50;5.85;;;2.92;;
4909;SDS011;2470;49.868;8.660;2023-02-28T14:42:30;4.60;;;3.13;;
4909;SDS011;2470;49.868;8.660;2023-02-28T14:44:58;6.65;;;3.75;;
4909;SDS011;2470;49.868;8.660;2023-02-28T14:47:25;5.38;;;3.58;;
4909;SDS011;2470;49.868;8.660;2023-02-28T14:49:54;4.82;;;3.67;;
4909;SDS011;2470;49.868;8.660;2023-02-28T14:52:21;6.13;;;3.70;;
4909;SDS011;2470;49.868;8.660;2023-02-28T14:55:05;4.53;;;3.00;;
4909;SDS011;2470;49.868;8.660;2023-02-28T14:57:41;5.78;;;3.88;;
4909;SDS011;2470;49.868;8.660;2023-02-28T15:00:22;6.60;;;3.85;;
4909;SDS011;2470;49.868;8.660;2023-02-28T15:02:50;8.00;;;4.55;;
4909;SDS011;2470;49.868;8.660;2023-02-28T15:05:25;8.57;;;4.07;;
4909;SDS011;2470;49.868;8.660;2023-02-28T15:08:03;9.25;;;3.53;;
4909;SDS011;2470;49.868;8.660;2023-02-28T15:10:38;6.55;;;4.05;;
4909;SDS011;2470;49.868;8.660;2023-02-28T15:13:07;4.95;;;3.33;;
4909;SDS011;2470;49.868;8.660;2023-02-28T15:18:42;37.20;;;14.50;;
4909;SDS011;2470;49.868;8.660;2023-02-28T15:21:15;21.63;;;8.93;;
4909;SDS011;2470;49.868;8.660;2023-02-28T15:23:44;13.00;;;6.10;;
4909;SDS011;2470;49.868;8.660;2023-02-28T15:26:23;5.43;;;3.00;;
4909;SDS011;2470;49.868;8.660;2023-02-28T15:28:57;4.53;;;3.20;;
4909;SDS011;2470;49.868;8.660;2023-02-28T15:31:32;5.67;;;3.80;;
4909;SDS011;2470;49.868;8.660;2023-02-28T15:34:04;5.87;;;3.70;;
4909;SDS011;2470;49.868;8.660;2023-02-28T15:36:32;7.30;;;4.20;;
4909;SDS011;2470;49.868;8.660;2023-02-28T15:39:02;6.70;;;4.60;;
4909;SDS011;2470;49.868;8.660;2023-02-28T15:41:42;4.93;;;3.20;;
4909;SDS011;2470;49.868;8.660;2023-02-28T15:44:24;5.30;;;3.23;;
4909;SDS011;2470;49.868;8.660;2023-02-28T15:46:55;8.63;;;3.63;;
4909;SDS011;2470;49.868;8.660;2023-02-28T15:49:24;10.93;;;4.53;;
4909;SDS011;2470;49.868;8.660;2023-02-28T15:51:51;8.30;;;4.90;;
4909;SDS011;2470;49.868;8.660;2023-02-28T15:54:28;5.87;;;3.70;;
4909;SDS011;2470;49.868;8.660;2023-02-28T15:56:57;4.13;;;3.13;;
4909;SDS011;2470;49.868;8.660;2023-02-28T15:59:29;11.97;;;5.40;;
4909;SDS011;2470;49.868;8.660;2023-02-28T16:07:36;5.43;;;3.30;;
4909;SDS011;2470;49.868;8.660;2023-02-28T16:10:07;8.23;;;3.63;;
4909;SDS011;2470;49.868;8.660;2023-02-28T16:12:35;31.30;;;11.27;;
4909;SDS011;2470;49.868;8.660;2023-02-28T16:15:03;11.97;;;4.70;;
4909;SDS011;2470;49.868;8.660;2023-02-28T16:17:33;27.63;;;10.43;;
4909;SDS011;2470;49.868;8.660;2023-02-28T16:20:05;14.00;;;6.93;;
4909;SDS011;2470;49.868;8.660;2023-02-28T16:22:42;5.57;;;3.57;;
4909;SDS011;2470;49.868;8.660;2023-02-28T16:25:33;5.27;;;3.70;;
4909;SDS011;2470;49.868;8.660;2023-02-28T16:28:04;8.13;;;4.80;;
4909;SDS011;2470;49.868;8.660;2023-02-28T16:30:38;10.87;;;5.17;;
4909;SDS011;2470;49.868;8.660;2023-02-28T16:33:03;20.30;;;8.97;;
4909;SDS011;2470;49.868;8.660;2023-02-28T16:35:28;13.13;;;7.23;;
4909;SDS011;2470;49.868;8.660;2023-02-28T16:37:54;16.30;;;7.63;;
4909;SDS011;2470;49.868;8.660;2023-02-28T16:40:24;11.60;;;6.77;;
4909;SDS011;2470;49.868;8.660;2023-02-28T16:42:51;10.23;;;5.20;;
4909;SDS011;2470;49.868;8.660;2023-02-28T16:45:26;5.00;;;3.90;;
4909;SDS011;2470;49.868;8.660;2023-02-28T16:47:53;6.13;;;3.73;;
4909;SDS011;2470;49.868;8.660;2023-02-28T16:50:20;8.77;;;3.60;;
4909;SDS011;2470;49.868;8.660;2023-02-28T16:52:50;4.93;;;2.80;;
4909;SDS011;2470;49.868;8.660;2023-02-28T16:55:22;5.20;;;3.60;;
4909;SDS011;2470;49.868;8.660;2023-02-28T16:57:50;5.63;;;3.10;;
4909;SDS011;2470;49.868;8.660;2023-02-28T17:00:24;6.87;;;3.50;;
4909;SDS011;2470;49.868;8.660;2023-02-28T17:02:52;4.87;;;3.57;;
4909;SDS011;2470;49.868;8.660;2023-02-28T17:05:18;3.40;;;3.10;;
4909;SDS011;2470;49.868;8.660;2023-02-28T17:07:44;6.07;;;3.00;;
4909;SDS011;2470;49.868;8.660;2023-02-28T17:10:12;6.67;;;3.27;;
4909;SDS011;2470;49.868;8.660;2023-02-28T17:12:45;4.20;;;2.90;;
4909;SDS011;2470;49.868;8.660;2023-02-28T17:15:11;7.63;;;3.37;;
4909;SDS011;2470;49.868;8.660;2023-02-28T17:17:38;3.67;;;2.63;;
4909;SDS011;2470;49.868;8.660;2023-02-28T17:20:05;4.20;;;3.30;;
4909;SDS011;2470;49.868;8.660;2023-02-28T17:22:31;4.53;;;3.07;;
4909;SDS011;2470;49.868;8.660;2023-02-28T17:24:57;4.60;;;3.07;;
4909;SDS011;2470;49.868;8.660;2023-02-28T17:27:23;8.83;;;3.10;;
4909;SDS011;2470;49.868;8.660;2023-02-28T17:29:49;4.13;;;3.43;;
4909;SDS011;2470;49.868;8.660;2023-02-28T17:32:15;5.30;;;3.53;;
4909;SDS011;2470;49.868;8.660;2023-02-28T17:34:41;6.87;;;3.63;;
4909;SDS011;2470;49.868;8.660;2023-02-28T17:37:08;4.27;;;3.00;;
4909;SDS011;2470;49.868;8.660;2023-02-28T17:39:34;3.27;;;2.90;;
4909;SDS011;2470;49.868;8.660;2023-02-28T17:41:59;7.33;;;4.53;;
4909;SDS011;2470;49.868;8.660;2023-02-28T17:44:25;3.83;;;2.80;;
4909;SDS011;2470;49.868;8.660;2023-02-28T17:46:51;6.17;;;3.70;;
4909;SDS011;2470;49.868;8.660;2023-02-28T17:49:19;7.33;;;3.30;;
4909;SDS011;2470;49.868;8.660;2023-02-28T17:51:44;6.40;;;3.57;;
4909;SDS011;2470;49.868;8.660;2023-02-28T17:54:10;7.27;;;3.47;;
4909;SDS011;2470;49.868;8.660;2023-02-28T17:56:35;5.87;;;3.23;;
4909;SDS011;2470;49.868;8.660;2023-02-28T17:59:01;5.70;;;2.87;;
4909;SDS011;2470;49.868;8.660;2023-02-28T18:01:28;3.30;;;2.63;;
4909;SDS011;2470;49.868;8.660;2023-02-28T18:03:59;8.30;;;3.77;;
4909;SDS011;2470;49.868;8.660;2023-02-28T18:06:35;3.87;;;3.33;;
4909;SDS011;2470;49.868;8.660;2023-02-28T18:09:11;5.53;;;3.50;;
4909;SDS011;2470;49.868;8.660;2023-02-28T18:11:38;12.80;;;3.43;;
4909;SDS011;2470;49.868;8.660;2023-02-28T18:14:10;7.77;;;3.77;;